Time;durP1;ratioP1;P1;durP2;ratioP2;P2;SDS_P1;SDS_P2;PMS_P1;PMS_P2;Temp;Humidity;BMP_temperature;BMP_pressure;BME280_temperature;BME280_humidity;BME280_pressure;Samples;Min_cycle;Max_cycle;Signal;HPM_P1;HPM_P2
2022/03/04 00:01:11;;;;;;;190.63;157.73;;;;;;;14.81;24.94;93501.56;5107903;27;20038;-60
2022/03/04 00:03:38;;;;;;;191.40;158.40;;;;;;;14.80;24.89;93502.78;5109153;27;20040;-60
2022/03/04 00:06:04;;;;;;;189.27;157.32;;;;;;;14.76;25.11;93505.59;5113274;27;20039;-60
2022/03/04 00:08:30;;;;;;;191.50;158.18;;;;;;;14.76;25.31;93496.78;5086343;27;20097;-59
2022/03/04 00:10:55;;;;;;;186.90;154.20;;;;;;;14.77;24.85;93499.03;5115856;27;20055;-60
2022/03/04 00:13:21;;;;;;;190.40;156.52;;;;;;;14.75;25.30;93498.72;5094854;27;20035;-60
2022/03/04 00:15:46;;;;;;;196.98;164.45;;;;;;;14.77;25.11;93499.03;5095720;27;20027;-60
2022/03/04 00:18:12;;;;;;;191.55;158.65;;;;;;;14.77;25.15;93503.66;5096042;27;20074;-60
2022/03/04 00:20:38;;;;;;;196.82;162.80;;;;;;;14.77;25.00;93500.97;5109674;27;20059;-62
2022/03/04 00:23:03;;;;;;;188.88;156.32;;;;;;;14.76;24.98;93491.41;5114080;27;20168;-59
2022/03/04 00:25:29;;;;;;;193.80;159.52;;;;;;;14.75;25.00;93493.34;5114091;27;20046;-60
2022/03/04 00:27:55;;;;;;;193.25;158.80;;;;;;;14.75;25.12;93497.97;5113595;27;20035;-58
2022/03/04 00:30:20;;;;;;;192.70;159.98;;;;;;;14.74;25.00;93501.84;5108856;27;20040;-60
2022/03/04 00:32:46;;;;;;;187.70;156.05;;;;;;;14.75;25.04;93506.03;5093660;28;20031;-59
2022/03/04 00:35:13;;;;;;;191.23;157.70;;;;;;;14.74;25.13;93507.25;5115295;27;20035;-60
2022/03/04 00:37:38;;;;;;;193.07;158.38;;;;;;;14.73;25.08;93511.13;5120964;27;20047;-60
2022/03/04 00:40:05;;;;;;;204.98;168.82;;;;;;;14.73;25.01;93509.19;5119960;27;20080;-60
2022/03/04 00:42:31;;;;;;;191.75;157.80;;;;;;;14.72;25.22;93505.00;5109346;27;20503;-60
2022/03/04 00:44:57;;;;;;;192.30;158.20;;;;;;;14.69;25.15;93497.81;5112869;27;20130;-58
2022/03/04 00:47:23;;;;;;;188.77;154.23;;;;;;;14.72;25.05;93501.56;5101412;27;20035;-60
2022/03/04 00:49:48;;;;;;;187.00;154.50;;;;;;;14.70;25.05;93502.00;5109020;27;20042;-60
2022/03/04 00:52:14;;;;;;;192.27;157.55;;;;;;;14.71;25.18;93503.50;5110236;27;20073;-60
2022/03/04 00:54:39;;;;;;;187.82;154.27;;;;;;;14.71;25.02;93506.19;5091220;28;20518;-60
2022/03/04 00:57:05;;;;;;;195.52;158.75;;;;;;;14.71;25.22;93503.50;5114491;27;20035;-57
2022/03/04 00:59:31;;;;;;;189.20;154.98;;;;;;;14.69;25.34;93497.06;5107608;27;20135;-58
2022/03/04 01:01:57;;;;;;;190.70;156.30;;;;;;;14.71;24.98;93500.81;5099367;28;20440;-60
2022/03/04 01:04:22;;;;;;;196.15;160.55;;;;;;;14.70;25.08;93499.31;5115240;27;20039;-61
2022/03/04 01:06:48;;;;;;;190.82;158.50;;;;;;;14.68;25.06;93488.22;5114162;27;20138;-60
2022/03/04 01:09:13;;;;;;;190.68;155.15;;;;;;;14.70;25.05;93487.78;5108462;28;20531;-58
2022/03/04 01:11:40;;;;;;;191.25;157.43;;;;;;;14.67;25.22;93486.72;5107419;28;20035;-60
2022/03/04 01:14:11;;;;;;;195.25;160.05;;;;;;;14.68;25.05;93490.19;5106771;28;20106;-59
2022/03/04 01:17:01;;;;;;;195.13;159.48;;;;;;;14.68;25.14;93493.63;5107227;28;20126;-60
2022/03/04 01:19:34;;;;;;;195.75;159.63;;;;;;;14.66;25.22;93479.09;5047942;28;20061;-60
2022/03/04 01:21:59;;;;;;;194.10;156.25;;;;;;;14.67;25.03;93492.13;5044805;28;20084;-60
2022/03/04 01:24:25;;;;;;;192.18;157.63;;;;;;;14.67;25.13;93489.44;5081454;28;20083;-59
2022/03/04 01:26:50;;;;;;;192.90;156.02;;;;;;;14.66;25.07;93487.19;5109010;28;20035;-60
2022/03/04 01:29:16;;;;;;;187.55;154.43;;;;;;;14.66;25.22;93484.50;5108366;28;20543;-59
2022/03/04 01:31:41;;;;;;;194.73;157.55;;;;;;;14.65;25.21;93486.44;5106016;28;20035;-60
2022/03/04 01:34:07;;;;;;;200.43;161.95;;;;;;;14.64;25.15;93476.84;5087765;28;20506;-60
2022/03/04 01:36:35;;;;;;;194.65;158.52;;;;;;;14.64;25.20;93478.78;5093940;28;20039;-59
2022/03/04 01:39:01;;;;;;;188.88;154.15;;;;;;;14.65;25.12;93480.28;5114359;28;20044;-60
2022/03/04 01:41:27;;;;;;;184.98;151.10;;;;;;;14.65;25.21;93483.00;5110383;28;20031;-60
2022/03/04 01:43:52;;;;;;;189.43;154.73;;;;;;;14.63;25.31;93482.69;5113334;28;20039;-60
2022/03/04 01:46:23;;;;;;;188.95;153.07;;;;;;;14.64;25.19;93479.53;5111934;28;20514;-61
2022/03/04 01:48:49;;;;;;;187.30;151.38;;;;;;;14.62;25.18;93475.81;5110861;28;20036;-60
2022/03/04 01:51:14;;;;;;;191.40;155.85;;;;;;;14.63;25.02;93475.34;5109180;28;20046;-58
2022/03/04 01:53:40;;;;;;;192.40;155.90;;;;;;;14.60;25.36;93478.94;5120480;28;20039;-59
2022/03/04 01:56:06;;;;;;;192.98;157.75;;;;;;;14.63;25.25;93474.59;5114410;28;20058;-59
2022/03/04 01:58:33;;;;;;;190.48;153.65;;;;;;;14.62;25.35;93478.50;5114038;28;20119;-60
2022/03/04 02:00:58;;;;;;;187.20;152.43;;;;;;;14.60;25.25;93472.81;5115161;28;20100;-59
2022/03/04 02:03:25;;;;;;;186.15;153.02;;;;;;;14.62;25.22;93475.81;5107121;28;20055;-60
2022/03/04 02:05:50;;;;;;;194.18;157.18;;;;;;;14.61;25.16;93477.75;5089373;28;20040;-60
2022/03/04 02:08:16;;;;;;;191.95;157.50;;;;;;;14.60;25.16;93467.44;5115113;28;21580;-61
2022/03/04 02:10:42;;;;;;;191.40;156.05;;;;;;;14.59;25.31;93474.00;5073504;28;20092;-60
2022/03/04 02:13:07;;;;;;;189.93;155.23;;;;;;;14.60;25.21;93472.81;5110187;28;20039;-60
2022/03/04 02:15:33;;;;;;;189.55;152.70;;;;;;;14.60;25.24;93478.19;5109224;28;20440;-59
2022/03/04 02:17:59;;;;;;;195.68;157.30;;;;;;;14.58;25.08;93467.88;5107389;28;20046;-60
2022/03/04 02:20:28;;;;;;;183.73;149.43;;;;;;;14.58;25.22;93472.50;5094933;27;20143;-59
2022/03/04 02:22:54;;;;;;;;;;;;;;;14.59;25.18;93474.00;5115376;27;20122;-60
2022/03/04 02:25:19;;;;;;;190.80;152.07;;;;;;;14.59;25.05;93474.00;5118923;27;19934;-60
2022/03/04 02:27:45;;;;;;;194.73;156.77;;;;;;;14.58;25.16;93470.56;5113059;27;20050;-58
2022/03/04 02:30:11;;;;;;;200.63;162.20;;;;;;;14.57;25.32;93471.75;5124705;27;20401;-60
2022/03/04 02:32:37;;;;;;;182.75;149.70;;;;;;;14.56;25.19;93478.31;5112976;27;20660;-60
2022/03/04 02:35:03;;;;;;;184.85;151.10;;;;;;;14.57;25.22;93482.50;5114844;27;20047;-60
2022/03/04 02:37:29;;;;;;;189.95;154.20;;;;;;;14.57;25.32;93471.00;5092731;28;20100;-60
2022/03/04 02:39:54;;;;;;;202.20;162.93;;;;;;;14.56;25.37;93470.25;5122347;27;20039;-60
2022/03/04 02:42:22;;;;;;;190.27;154.02;;;;;;;14.55;25.04;93468.00;5114071;27;20096;-59
2022/03/04 02:44:47;;;;;;;187.88;153.43;;;;;;;14.56;25.30;93475.63;5115802;27;20066;-61
2022/03/04 02:47:13;;;;;;;189.15;152.98;;;;;;;14.57;25.25;93474.44;5102841;27;20744;-60
2022/03/04 02:49:39;;;;;;;187.30;152.35;;;;;;;14.56;25.20;93477.56;5113716;27;20043;-60
2022/03/04 02:52:04;;;;;;;190.75;153.32;;;;;;;14.56;25.32;93472.94;5113072;27;20048;-60
2022/03/04 02:54:30;;;;;;;192.77;155.00;;;;;;;14.56;25.30;93472.19;5110672;27;20050;-60
2022/03/04 02:56:55;;;;;;;193.40;157.95;;;;;;;14.56;25.25;93470.25;5112945;27;20039;-61
2022/03/04 02:59:21;;;;;;;184.32;150.98;;;;;;;14.57;25.15;93476.38;5114162;27;20110;-61
2022/03/04 03:01:47;;;;;;;196.90;159.43;;;;;;;14.54;24.99;93469.19;5110199;27;20036;-61
2022/03/04 03:04:12;;;;;;;188.77;153.63;;;;;;;14.55;25.25;93474.13;5110441;27;20115;-60
2022/03/04 03:06:37;;;;;;;190.55;156.32;;;;;;;14.53;25.12;93468.44;5110076;27;20047;-62
2022/03/04 03:09:03;;;;;;;193.18;156.55;;;;;;;14.55;25.06;93476.06;5103665;27;20039;-62
2022/03/04 03:11:29;;;;;;;190.02;155.07;;;;;;;14.55;25.07;93473.38;5112867;27;20294;-61
2022/03/04 03:13:54;;;;;;;190.63;155.07;;;;;;;14.54;25.05;93471.88;5092426;27;20467;-59
2022/03/04 03:16:21;;;;;;;190.40;154.93;;;;;;;14.53;25.20;93471.13;5115744;27;20047;-59
2022/03/04 03:18:46;;;;;;;193.02;156.90;;;;;;;14.54;24.89;93464.56;5123435;27;20381;-57
2022/03/04 03:21:12;;;;;;;193.18;157.60;;;;;;;14.54;25.12;93477.28;5095372;27;20180;-59
2022/03/04 03:23:37;;;;;;;192.52;155.15;;;;;;;14.54;24.88;93477.28;5110183;27;20063;-60
2022/03/04 03:26:03;;;;;;;190.90;155.02;;;;;;;14.50;25.15;93469.34;5112451;27;20496;-60
2022/03/04 03:28:28;;;;;;;198.68;158.30;;;;;;;14.49;25.01;93465.91;5109193;27;20124;-59
2022/03/04 03:30:54;;;;;;;188.88;153.98;;;;;;;14.52;25.07;93466.19;5109143;27;20039;-60
2022/03/04 03:33:20;;;;;;;188.80;154.05;;;;;;;14.52;25.14;93472.34;5100971;27;20077;-59
2022/03/04 03:35:46;;;;;;;188.20;154.25;;;;;;;14.52;24.94;93466.94;5117131;27;20058;-60
2022/03/04 03:38:11;;;;;;;189.05;152.07;;;;;;;14.50;25.12;93462.00;5110207;27;20508;-60
2022/03/04 03:40:52;;;;;;;192.70;156.60;;;;;;;14.50;24.93;93459.31;5114507;27;20039;-58
2022/03/04 03:43:35;;;;;;;191.45;154.27;;;;;;;14.50;25.06;93464.69;5088712;28;20043;-60
2022/03/04 03:46:01;;;;;;;190.55;153.73;;;;;;;14.50;25.07;93459.31;5113474;27;20045;-58
2022/03/04 03:48:26;;;;;;;191.90;155.93;;;;;;;14.48;25.21;93458.28;5111809;27;20035;-60
2022/03/04 03:50:52;;;;;;;190.25;153.63;;;;;;;14.49;25.12;93454.38;5090412;27;20048;-60
2022/03/04 03:53:17;;;;;;;193.52;157.13;;;;;;;14.49;24.91;93463.22;5113084;27;20066;-60
2022/03/04 03:55:43;;;;;;;190.38;155.65;;;;;;;14.47;25.08;93457.53;5113862;27;20043;-59
2022/03/04 03:58:08;;;;;;;192.52;154.15;;;;;;;14.48;24.58;93456.31;5091766;27;20111;-60
2022/03/04 04:00:34;;;;;;;222.05;178.10;;;;;;;14.49;25.18;93454.38;5112094;27;20047;-59
2022/03/04 04:03:00;;;;;;;191.30;156.98;;;;;;;14.49;25.22;93457.81;5113508;27;20511;-60
2022/03/04 04:05:26;;;;;;;193.25;157.60;;;;;;;14.47;25.25;93454.06;5114479;27;20031;-60
2022/03/04 04:07:52;;;;;;;191.20;153.68;;;;;;;14.47;25.06;93457.53;5112312;27;20499;-60
2022/03/04 04:10:17;;;;;;;208.77;167.35;;;;;;;14.46;25.17;93450.63;5089261;28;20077;-58
2022/03/04 04:12:43;;;;;;;191.60;153.93;;;;;;;14.46;25.15;93456.03;5091793;28;20035;-60
2022/03/04 04:15:08;;;;;;;190.30;155.02;;;;;;;14.46;25.01;93458.72;5114667;27;20384;-59
2022/03/04 04:17:34;;;;;;;189.52;153.32;;;;;;;14.47;25.19;93456.78;5107592;27;20034;-59
2022/03/04 04:20:00;;;;;;;189.52;154.30;;;;;;;14.45;25.15;93451.84;5097044;28;20036;-59
2022/03/04 04:22:25;;;;;;;193.48;157.95;;;;;;;14.45;24.96;93457.22;5114576;27;20177;-60
2022/03/04 04:24:51;;;;;;;188.15;151.15;;;;;;;14.45;25.48;93453.78;5113904;27;20039;-61
2022/03/04 04:27:17;;;;;;;195.18;157.48;;;;;;;14.43;25.01;93464.22;5115927;27;20043;-60
2022/03/04 04:30:01;;;;;;;190.45;155.27;;;;;;;14.45;25.02;93472.59;5116974;27;20483;-60
2022/03/04 04:32:39;;;;;;;192.25;154.27;;;;;;;14.43;25.08;93462.28;5105461;27;20479;-59
2022/03/04 04:35:30;;;;;;;191.18;154.73;;;;;;;14.43;25.22;93458.84;5090275;28;20405;-58
2022/03/04 04:37:55;;;;;;;;;;;;;;;14.43;25.22;93466.91;5122983;27;20428;-60
2022/03/04 04:40:20;;;;;;;193.73;153.02;;;;;;;14.42;24.92;93457.34;5115232;27;20004;-59
2022/03/04 04:42:46;;;;;;;188.93;150.85;;;;;;;14.41;25.15;93456.59;5107926;27;20096;-60
2022/03/04 04:45:12;;;;;;;192.32;153.73;;;;;;;14.41;25.07;93463.88;5111595;27;20115;-59
2022/03/04 04:47:38;;;;;;;189.70;153.35;;;;;;;14.41;25.02;93469.28;5116217;27;20043;-60
2022/03/04 04:50:04;;;;;;;191.60;155.50;;;;;;;14.41;25.23;93469.28;5090894;28;20058;-59
2022/03/04 04:52:30;;;;;;;187.93;150.82;;;;;;;14.40;25.03;93473.16;5118992;27;20061;-60
2022/03/04 04:54:55;;;;;;;189.02;150.43;;;;;;;14.40;24.98;93478.53;5124797;27;20487;-60
2022/03/04 04:57:21;;;;;;;190.73;153.75;;;;;;;14.40;25.16;93475.84;5091537;27;20100;-60
2022/03/04 04:59:47;;;;;;;196.23;157.00;;;;;;;14.40;25.36;93478.53;5113038;27;20048;-60
2022/03/04 05:02:12;;;;;;;190.25;154.88;;;;;;;14.38;25.12;93478.97;5107813;27;20043;-60
2022/03/04 05:04:38;;;;;;;187.80;151.45;;;;;;;14.40;25.23;93486.59;5121419;27;20035;-60
2022/03/04 05:07:04;;;;;;;190.75;153.90;;;;;;;14.40;25.15;93489.28;5114183;27;20135;-59
2022/03/04 05:09:29;;;;;;;186.38;150.20;;;;;;;14.39;24.82;93485.84;5109559;27;20039;-60
2022/03/04 05:11:55;;;;;;;192.60;153.48;;;;;;;14.37;24.91;93496.31;5107159;28;20031;-60
2022/03/04 05:14:23;;;;;;;189.60;153.82;;;;;;;14.41;25.17;93501.56;5107369;27;20032;-60
2022/03/04 05:16:49;;;;;;;203.60;164.48;;;;;;;14.42;25.04;93497.69;5114186;28;20045;-61
2022/03/04 05:19:14;;;;;;;190.32;153.35;;;;;;;14.43;24.89;93502.63;5110140;28;20040;-61
2022/03/04 05:21:40;;;;;;;189.18;152.32;;;;;;;14.43;24.96;93508.03;5110498;28;20046;-60
2022/03/04 05:24:07;;;;;;;188.85;153.05;;;;;;;14.45;24.81;93513.72;5096626;28;20042;-62
2022/03/04 05:26:37;;;;;;;189.50;153.73;;;;;;;14.46;25.07;93506.38;5109011;27;20043;-62
2022/03/04 05:29:09;;;;;;;188.65;152.55;;;;;;;14.45;24.76;93519.09;5116306;28;20035;-65
2022/03/04 05:31:40;;;;;;;188.63;151.43;;;;;;;14.45;24.77;93521.78;5115977;28;20562;-62
2022/03/04 05:34:06;;;;;;;189.98;154.35;;;;;;;14.48;24.80;93522.84;5096102;28;20063;-60
2022/03/04 05:36:32;;;;;;;188.48;151.75;;;;;;;14.48;24.85;93528.97;5098568;28;20040;-64
2022/03/04 05:38:58;;;;;;;191.40;153.82;;;;;;;14.50;24.75;93526.59;5111983;28;20043;-59
2022/03/04 05:41:24;;;;;;;187.40;150.75;;;;;;;14.33;24.91;93530.66;5116488;28;20039;-60
2022/03/04 05:43:50;;;;;;;191.52;155.23;;;;;;;13.97;25.30;93531.22;5108866;28;20621;-59
2022/03/04 05:46:16;;;;;;;197.20;157.32;;;;;;;14.22;24.69;93541.09;5112995;27;20035;-60
2022/03/04 05:48:42;;;;;;;188.45;150.52;;;;;;;14.33;24.34;93536.03;5113493;28;20053;-59
2022/03/04 05:51:09;;;;;;;205.10;164.50;;;;;;;14.41;24.51;93545.38;5105073;28;20039;-58
2022/03/04 05:53:35;;;;;;;190.38;151.90;;;;;;;14.44;24.53;93549.13;5110887;28;20096;-59
2022/03/04 05:56:02;;;;;;;187.25;152.00;;;;;;;14.46;24.67;93552.88;5110521;28;20043;-59
2022/03/04 05:58:28;;;;;;;189.43;152.18;;;;;;;14.47;24.41;93550.94;5109569;28;20067;-60
2022/03/04 06:00:54;;;;;;;189.25;154.52;;;;;;;14.48;24.61;93555.13;5115311;27;20158;-59
2022/03/04 06:03:19;;;;;;;195.52;160.02;;;;;;;14.48;24.54;93560.50;5113283;27;20076;-59
2022/03/04 06:05:45;;;;;;;190.23;154.52;;;;;;;14.50;24.59;93555.44;5125322;27;20420;-60
2022/03/04 06:08:11;;;;;;;194.25;154.15;;;;;;;14.52;24.48;93561.13;5112849;27;20118;-60
2022/03/04 06:10:37;;;;;;;190.95;155.27;;;;;;;14.53;24.10;93573.38;5095000;28;20038;-60
2022/03/04 06:13:02;;;;;;;191.18;155.80;;;;;;;14.53;24.38;93573.38;5098182;28;20161;-58
2022/03/04 06:15:28;;;;;;;190.85;153.45;;;;;;;14.52;24.51;93577.25;5124575;27;20060;-60
2022/03/04 06:17:54;;;;;;;187.13;152.25;;;;;;;14.53;24.33;93572.63;5117824;27;20051;-59
2022/03/04 06:20:19;;;;;;;200.65;162.65;;;;;;;14.54;24.36;93572.19;5107694;27;20055;-60
2022/03/04 06:22:45;;;;;;;190.88;155.18;;;;;;;14.54;24.57;93574.88;5110866;27;20108;-60
2022/03/04 06:25:14;;;;;;;191.50;154.30;;;;;;;14.55;24.58;93581.00;5111574;27;20114;-60
2022/03/04 06:27:59;;;;;;;194.15;158.35;;;;;;;14.56;24.46;93580.56;5112182;27;20555;-61
2022/03/04 06:30:27;;;;;;;193.05;156.70;;;;;;;14.56;24.40;93585.97;5098721;27;20791;-60
2022/03/04 06:35:40;;;;;;;209.55;167.90;;;;;;;14.55;24.54;93581.75;5108155;27;20050;-60
2022/03/04 06:38:05;;;;;;;187.52;151.43;;;;;;;14.58;24.76;93585.50;5121598;27;20062;-61
2022/03/04 06:40:31;;;;;;;195.02;158.07;;;;;;;14.57;24.66;93589.41;5112028;27;20035;-61
2022/03/04 06:42:57;;;;;;;189.30;154.45;;;;;;;14.56;24.58;93588.66;5119106;27;20039;-60
2022/03/04 06:45:22;;;;;;;200.98;161.07;;;;;;;14.56;24.72;93598.66;5095190;27;20066;-60
2022/03/04 06:47:48;;;;;;;189.13;153.45;;;;;;;14.56;24.51;93596.72;5094165;28;20047;-60
2022/03/04 06:50:13;;;;;;;205.55;165.30;;;;;;;14.56;24.52;93607.47;5111752;27;20040;-61
2022/03/04 06:52:39;;;;;;;188.95;152.93;;;;;;;14.53;24.45;93605.66;5098135;27;20040;-60
2022/03/04 06:55:05;;;;;;;187.30;151.50;;;;;;;14.55;24.53;93614.06;5122253;27;20159;-60
2022/03/04 06:57:31;;;;;;;193.90;154.68;;;;;;;14.56;24.40;93610.19;5114336;27;20039;-61
2022/03/04 06:59:56;;;;;;;190.15;153.55;;;;;;;14.58;24.69;93620.50;5113894;27;20053;-61
2022/03/04 07:02:22;;;;;;;195.85;159.98;;;;;;;14.58;24.71;93615.13;5103801;28;20044;-61
2022/03/04 07:04:49;;;;;;;188.32;152.13;;;;;;;14.52;24.61;93606.88;5114652;27;20047;-61
2022/03/04 07:07:15;;;;;;;193.80;156.65;;;;;;;14.56;24.34;93612.88;5123345;27;20660;-61
2022/03/04 07:09:41;;;;;;;192.20;155.73;;;;;;;14.58;24.60;93610.47;5125804;27;20054;-62
2022/03/04 07:12:07;;;;;;;188.57;152.82;;;;;;;14.56;24.65;93609.41;5095231;28;23133;-61
2022/03/04 07:14:33;;;;;;;186.50;152.68;;;;;;;14.60;24.55;93618.13;5118629;27;20039;-61
2022/03/04 07:16:58;;;;;;;188.10;151.68;;;;;;;14.59;24.68;93612.00;5121836;27;20181;-60
2022/03/04 07:19:24;;;;;;;189.65;154.65;;;;;;;14.57;24.70;93614.38;5119924;27;20498;-60
2022/03/04 07:21:49;;;;;;;195.05;158.90;;;;;;;14.61;24.62;93616.94;5101159;27;20911;-63
2022/03/04 07:24:15;;;;;;;194.50;158.32;;;;;;;14.60;24.61;93618.13;5119050;27;20062;-62
2022/03/04 07:26:41;;;;;;;191.25;156.73;;;;;;;14.61;24.62;93612.28;5099858;27;20054;-63
2022/03/04 07:29:10;;;;;;;189.52;154.82;;;;;;;14.62;24.75;93615.75;5126889;27;20043;-64
2022/03/04 07:31:35;;;;;;;189.80;155.75;;;;;;;14.59;24.89;93608.53;5100972;27;20059;-62
2022/03/04 07:34:01;;;;;;;190.63;156.38;;;;;;;14.62;24.70;93610.34;5108163;28;20042;-63
2022/03/04 07:36:30;;;;;;;189.60;154.75;;;;;;;14.62;24.51;93603.03;5101877;27;20046;-63
2022/03/04 07:38:57;;;;;;;191.95;154.90;;;;;;;14.60;24.70;93600.03;5081276;28;20138;-61
2022/03/04 07:41:22;;;;;;;194.25;158.55;;;;;;;14.61;25.15;93608.84;5112195;27;20039;-62
2022/03/04 07:43:51;;;;;;;190.45;154.60;;;;;;;14.63;24.80;93611.84;5101459;27;20455;-64
2022/03/04 07:46:21;;;;;;;196.27;161.13;;;;;;;14.65;25.06;93612.16;5100430;27;20066;-63
2022/03/04 07:48:47;;;;;;;190.77;155.10;;;;;;;14.62;24.88;93613.78;5112451;27;20118;-63
2022/03/04 07:51:13;;;;;;;193.05;157.13;;;;;;;14.64;25.02;93626.81;5110208;27;20712;-63
2022/03/04 07:53:39;;;;;;;194.38;159.98;;;;;;;14.65;25.06;93620.25;5111762;27;20061;-61
2022/03/04 07:56:04;;;;;;;189.77;155.85;;;;;;;14.65;25.10;93621.00;5107147;27;20100;-60
2022/03/04 07:58:30;;;;;;;194.80;157.27;;;;;;;14.64;24.94;93624.88;5114368;27;20043;-62
2022/03/04 08:00:55;;;;;;;194.05;158.15;;;;;;;14.66;24.88;93627.13;5116306;27;20044;-63
2022/03/04 08:03:21;;;;;;;190.38;156.73;;;;;;;14.62;24.91;93621.13;5112272;27;20039;-63
2022/03/04 08:05:46;;;;;;;192.15;155.88;;;;;;;14.64;25.03;93627.56;5117817;27;20062;-62
2022/03/04 08:08:12;;;;;;;185.57;151.13;;;;;;;14.61;25.00;93633.81;5095963;27;20626;-63
2022/03/04 08:10:38;;;;;;;191.68;156.25;;;;;;;14.60;24.88;93634.25;5114430;27;20050;-63
2022/03/04 08:13:04;;;;;;;193.13;155.43;;;;;;;14.56;25.15;93639.78;5109442;27;20360;-62
2022/03/04 08:15:30;;;;;;;189.20;154.35;;;;;;;14.50;25.05;93644.97;5108503;27;20047;-62
2022/03/04 08:17:55;;;;;;;190.93;155.70;;;;;;;14.49;25.11;93642.72;5106282;28;20039;-62
2022/03/04 08:20:21;;;;;;;192.50;156.68;;;;;;;14.47;25.20;93637.03;5106418;27;20041;-62
2022/03/04 08:22:47;;;;;;;190.85;155.88;;;;;;;14.44;25.01;93649.41;5118438;27;20085;-62
2022/03/04 08:25:13;;;;;;;192.07;157.40;;;;;;;14.39;25.31;93643.81;5112709;27;20039;-63
2022/03/04 08:27:40;;;;;;;193.98;157.82;;;;;;;14.43;24.90;93650.59;5073616;28;20058;-62
2022/03/04 08:30:08;;;;;;;198.13;161.35;;;;;;;14.43;25.20;93647.16;5100411;27;20491;-59
2022/03/04 08:32:34;;;;;;;194.25;159.48;;;;;;;14.34;24.80;93655.16;5123940;27;20126;-60
2022/03/04 08:35:00;;;;;;;191.20;156.45;;;;;;;14.30;24.97;93649.88;5115879;27;20047;-60
2022/03/04 08:37:26;;;;;;;188.77;152.73;;;;;;;14.27;25.14;93644.66;5125693;27;20164;-61
2022/03/04 08:39:51;;;;;;;195.98;159.00;;;;;;;14.23;24.93;93652.09;5114330;27;20069;-61
2022/03/04 08:42:17;;;;;;;199.38;160.48;;;;;;;14.26;25.05;93646.59;5107232;27;20380;-62
2022/03/04 08:44:42;;;;;;;202.50;164.10;;;;;;;14.33;24.98;93643.63;5113251;27;20036;-61
2022/03/04 08:47:08;;;;;;;207.50;169.30;;;;;;;14.37;24.90;93646.94;5117686;27;20113;-61
2022/03/04 08:49:34;;;;;;;191.82;155.98;;;;;;;14.38;24.75;93645.00;5087825;27;20032;-61
2022/03/04 08:52:00;;;;;;;203.93;165.30;;;;;;;14.37;24.96;93654.28;5105493;27;20538;-62
2022/03/04 08:54:26;;;;;;;187.77;154.02;;;;;;;14.36;24.99;93642.75;5093619;27;20051;-61
2022/03/04 08:56:52;;;;;;;204.68;163.55;;;;;;;14.39;25.05;93651.88;5108117;27;20040;-62
2022/03/04 08:59:18;;;;;;;199.18;162.05;;;;;;;14.40;25.14;93634.56;5118448;27;20058;-61
2022/03/04 09:01:44;;;;;;;186.77;152.65;;;;;;;14.33;25.07;93645.56;5113548;27;20169;-60
2022/03/04 09:04:13;;;;;;;191.77;155.63;;;;;;;14.39;25.06;93659.97;5094200;28;20130;-60
2022/03/04 09:06:39;;;;;;;202.07;163.70;;;;;;;14.41;24.76;93638.75;5095431;27;20511;-61
2022/03/04 09:09:05;;;;;;;209.68;167.50;;;;;;;14.42;25.23;93651.78;5104376;27;20107;-60
2022/03/04 09:11:31;;;;;;;206.68;166.35;;;;;;;14.38;24.99;93648.44;5101509;27;20712;-61
2022/03/04 09:13:56;;;;;;;190.85;154.98;;;;;;;14.33;25.21;93648.25;5119885;27;20039;-61
2022/03/04 09:16:22;;;;;;;199.20;160.98;;;;;;;14.29;24.88;93647.66;5111429;27;20096;-62
2022/03/04 09:18:48;;;;;;;206.65;164.32;;;;;;;14.28;24.66;93640.78;5104663;28;20054;-62
2022/03/04 09:21:13;;;;;;;194.00;157.82;;;;;;;14.30;24.74;93649.16;5110590;28;20384;-62
2022/03/04 09:23:39;;;;;;;194.70;159.80;;;;;;;14.30;24.72;93646.47;5107593;28;20047;-62
2022/03/04 09:26:04;;;;;;;195.02;159.13;;;;;;;14.31;24.72;93637.94;5112938;28;20380;-62
2022/03/04 09:28:30;;;;;;;195.77;158.88;;;;;;;14.24;24.34;93640.16;5095526;28;20051;-63
2022/03/04 09:30:56;;;;;;;206.10;164.48;;;;;;;14.11;24.59;93640.97;5113430;27;20071;-61
2022/03/04 09:33:22;;;;;;;199.27;160.80;;;;;;;14.15;24.90;93638.16;5076163;27;20043;-62
2022/03/04 09:35:47;;;;;;;206.07;165.05;;;;;;;14.21;24.72;93633.72;5098520;27;20088;-61
2022/03/04 09:38:13;;;;;;;194.82;157.30;;;;;;;14.30;24.48;93641.81;5117589;27;20036;-60
2022/03/04 09:40:39;;;;;;;198.98;160.75;;;;;;;14.24;24.37;93640.91;5114925;27;20074;-60
2022/03/04 09:43:07;;;;;;;211.43;170.23;;;;;;;14.25;24.53;93642.41;5113586;27;20142;-60
2022/03/04 09:45:32;;;;;;;196.27;159.02;;;;;;;14.32;24.37;93642.13;5115433;27;20073;-61
2022/03/04 09:48:01;;;;;;;194.65;158.77;;;;;;;14.18;24.21;93638.03;5121620;27;20061;-61
2022/03/04 09:50:27;;;;;;;196.63;158.15;;;;;;;14.26;24.30;93648.53;5114663;27;20035;-60
2022/03/04 09:52:53;;;;;;;196.60;159.02;;;;;;;14.23;24.29;93642.09;5113859;27;20031;-60
2022/03/04 09:55:18;;;;;;;205.95;165.68;;;;;;;14.20;24.15;93636.84;5114780;27;20591;-60
2022/03/04 09:57:44;;;;;;;196.40;158.95;;;;;;;14.18;24.23;93642.66;5127181;27;20031;-61
2022/03/04 10:00:11;;;;;;;214.40;171.63;;;;;;;14.01;24.01;93635.94;5127845;27;20043;-61
2022/03/04 10:02:37;;;;;;;198.85;158.93;;;;;;;13.88;24.04;93636.00;5122834;27;20031;-61
2022/03/04 10:05:03;;;;;;;197.77;156.70;;;;;;;13.92;24.58;93630.50;5121394;27;20563;-61
2022/03/04 10:07:43;;;;;;;194.43;157.20;;;;;;;14.02;23.96;93632.06;5114394;27;20584;-61
2022/03/04 10:10:14;;;;;;;205.50;162.98;;;;;;;14.07;23.96;93626.13;5112824;27;20035;-61
2022/03/04 10:12:57;;;;;;;195.52;156.88;;;;;;;14.01;23.97;93630.56;5101371;28;20060;-61
2022/03/04 10:15:25;;;;;;;194.43;155.68;;;;;;;14.11;24.28;93629.47;5115543;27;20047;-61
2022/03/04 10:18:02;;;;;;;196.45;157.45;;;;;;;14.21;24.02;93614.13;5111219;27;20043;-59
2022/03/04 10:20:36;;;;;;;197.95;156.57;;;;;;;14.28;23.87;93624.66;5110924;27;20097;-61
2022/03/04 10:23:14;;;;;;;194.95;156.02;;;;;;;14.26;23.97;93627.78;5121534;27;20100;-61
2022/03/04 10:25:48;;;;;;;196.18;158.45;;;;;;;14.15;24.22;93625.47;5121989;27;20570;-59
2022/03/04 10:28:15;;;;;;;189.45;152.10;;;;;;;14.18;23.94;93624.59;5111028;27;20039;-60
2022/03/04 10:30:47;;;;;;;196.32;158.73;;;;;;;14.22;24.21;93624.47;5129795;27;20039;-61
2022/03/04 10:33:33;;;;;;;201.85;161.75;;;;;;;14.29;24.18;93618.06;5113461;27;20438;-61
2022/03/04 10:36:09;;;;;;;194.20;155.50;;;;;;;14.32;24.00;93620.63;5119411;27;20043;-61
2022/03/04 10:38:35;;;;;;;196.57;157.73;;;;;;;14.27;24.05;93625.84;5122830;27;20073;-61
2022/03/04 10:41:20;;;;;;;192.15;153.38;;;;;;;14.17;23.89;93623.06;5080199;28;20057;-61
2022/03/04 10:43:45;;;;;;;194.93;156.05;;;;;;;14.21;24.18;93624.91;5094470;27;20039;-62
2022/03/04 10:46:11;;;;;;;195.43;157.05;;;;;;;14.18;24.03;93621.91;5117658;27;20126;-61
2022/03/04 10:48:36;;;;;;;210.57;164.65;;;;;;;14.25;23.90;93607.44;5113670;27;20043;-61
2022/03/04 10:51:04;;;;;;;195.98;158.02;;;;;;;14.27;23.90;93617.75;5112419;27;20043;-62
2022/03/04 10:53:32;;;;;;;228.13;181.75;;;;;;;14.18;23.69;93613.81;5120154;27;20141;-62
2022/03/04 10:56:06;;;;;;;193.75;155.70;;;;;;;14.03;23.67;93612.06;5102487;27;20027;-62
2022/03/04 10:58:37;;;;;;;202.40;161.48;;;;;;;13.88;23.67;93609.13;5094938;27;20039;-62
2022/03/04 11:01:09;;;;;;;194.13;155.82;;;;;;;13.85;23.92;93618.03;5111758;27;20039;-62
2022/03/04 11:03:37;;;;;;;199.77;160.18;;;;;;;13.92;23.34;93614.38;5115659;27;20039;-60